Latest Coastal Weather Observations for St Helens

IDT60701

Issued at 6:52 pm EDT Monday 25 October 2021 (issued every 10 minutes, with the page automatically refreshed every 10 minutes)

About coastal observations | Map of coastal stations | Coastal observations for TAS | Marine services | Other Formats
Station Details ID: 092120 Name: ST HELENS AERODROME Lat: -41.34 Lon: 148.28 Height: 48.0 m
Data from the previous 72 hours. | See also: Recent months at St Helens
Date/Time
EDT
Wind Sea
Height
m
Swell Vis
km
Cloud Weather Temp
°C
Press
MSL
hPa
Rain since
9am
mm
Dir  Spd
kts
Gust
kts
Height
m
Period
s
Dir
25/06:30pm S 9 17 - - - - 10 Partly cloudy - 11.1 1019.1 0.2
25/06:00pm S 12 21 - - - - 10 Cloudy - 11.1 1018.9 0.2
25/05:30pm S 13 23 - - - - 10 Partly cloudy - 10.8 1018.8 0.2
25/05:00pm S 13 23 - - - - 10 Partly cloudy - 11.0 1018.5 0.2
25/04:30pm S 13 22 - - - - 10 Partly cloudy - 13.0 1018.5 0.2
25/04:00pm S 12 21 - - - - 10 Partly cloudy - 11.9 1018.4 0.2
25/03:30pm SSE 13 24 - - - - 10 Partly cloudy - 12.1 1018.3 0.2
25/03:00pm S 11 21 - - - - 10 Cloudy - 12.5 1018.3 0.2
25/02:30pm S 14 25 - - - - 10 Partly cloudy - 13.2 1018.3 0.2
25/02:00pm S 14 25 - - - - 10 Partly cloudy - 12.7 1018.3 0.2
25/01:30pm S 15 29 - - - - 10 Partly cloudy - 13.3 1018.4 0.2
25/01:27pm S 15 27 - - - - 10 Partly cloudy - 13.0 1018.4 0.2
25/01:00pm S 14 23 - - - - 10 Partly cloudy - 12.7 1018.4 0.2
25/12:30pm S 15 27 - - - - 10 Partly cloudy - 13.0 1018.3 0.2
25/12:08pm S 15 26 - - - - 10 Cloudy - 12.3 1018.5 0.2
25/12:00pm SSE 12 24 - - - - 10 Cloudy - 12.5 1018.4 0.2
25/11:47am S 15 26 - - - - 10 Cloudy - 12.2 1018.4 0.2
25/11:30am S 13 26 - - - - 10 Cloudy - 12.8 1018.3 0.2
25/11:00am S 12 21 - - - - 10 Partly cloudy - 12.3 1018.3 0.2
25/10:30am S 13 24 - - - - 10 Partly cloudy - 11.8 1018.0 0.2
25/10:00am S 16 28 - - - - 10 Partly cloudy - 11.6 1018.0 0.2
25/09:57am S 15 28 - - - - 10 Partly cloudy - 11.5 1018.0 0.2
25/09:30am S 15 24 - - - - 10 Partly cloudy - 10.7 1017.9 0.2
25/09:00am S 15 25 - - - - 10 Cloudy - 10.7 1017.7 0.0
25/08:30am SSW 15 27 - - - - 10 Partly cloudy - 10.4 1017.5 0.0
25/08:08am SSW 15 27 - - - - 10 Partly cloudy - 10.1 1017.4 0.0
25/08:00am SSW 11 23 - - - - 10 Partly cloudy - 10.0 1017.3 0.0
25/07:30am S 11 18 - - - - 10 Partly cloudy - 9.9 1017.0 0.0
25/07:15am S 15 30 - - - - 10 Partly cloudy - 9.7 1016.9 0.0
25/07:00am S 13 24 - - - - 10 Partly cloudy - 9.5 1016.8 0.0
25/06:30am S 11 25 - - - - 10 Partly cloudy - 9.3 1016.4 0.0
25/06:00am SSW 13 21 - - - - 10 Mostly cloudy - 9.1 1016.3 0.0
25/05:30am S 11 19 - - - - 10 Partly cloudy - 9.1 1016.1 0.0
25/05:00am S 14 22 - - - - 10 Partly cloudy - 9.4 1015.9 0.0
25/04:30am S 12 21 - - - - 10 Partly cloudy - 9.2 1015.9 0.0
25/04:00am S 12 22 - - - - 10 Partly cloudy - 9.2 1016.2 0.0
25/03:30am SSW 12 23 - - - - 10 Partly cloudy - 9.4 1016.2 0.0
25/03:00am S 11 20 - - - - 10 Cloudy - 9.4 1016.3 0.0
25/02:34am S 15 26 - - - - 10 Partly cloudy - 9.6 1016.1 0.0
25/02:30am S 13 21 - - - - 10 Partly cloudy - 9.6 1016.2 0.0
25/02:12am S 15 27 - - - - 10 Partly cloudy - 9.6 1016.1 0.0
25/02:00am SSW 12 22 - - - - 10 Partly cloudy - 9.5 1016.1 0.0
25/01:30am S 13 22 - - - - 10 Partly cloudy - 9.7 1016.7 0.0
25/01:00am S 13 21 - - - - 10 Partly cloudy - 9.8 1016.8 0.0
25/12:30am SSW 11 19 - - - - 10 Partly cloudy - 9.9 1017.0 0.0
25/12:00am S 14 24 - - - - 10 Cloudy - 9.8 1017.0 0.0
 
Date/Time
EDT
Wind Sea
Height
m
Swell Vis
km
Cloud Weather Temp
°C
Press
MSL
hPa
Rain since
9am
mm
Dir  Spd
kts
Gust
kts
Height
m
Period
s
Dir
24/11:30pm S 11 24 - - - - 10 Partly cloudy - 9.8 1017.1 0.0
24/11:00pm SSW 12 20 - - - - 10 Partly cloudy - 10.2 1017.3 0.0
24/10:30pm SSW 10 15 - - - - 10 Partly cloudy - 10.0 1017.3 0.0
24/10:00pm SSW 9 19 - - - - 10 Partly cloudy - 10.0 1017.4 0.0
24/09:30pm SSW 11 24 - - - - 10 Partly cloudy - 10.2 1017.4 0.0
24/09:00pm S 10 17 - - - - 10 Cloudy - 10.3 1017.5 0.0
24/08:30pm SSW 10 16 - - - - 10 Partly cloudy - 10.6 1017.4 0.0
24/08:00pm SSW 8 14 - - - - 10 Partly cloudy - 10.5 1017.1 0.0
24/07:30pm S 8 13 - - - - 10 Partly cloudy - 10.6 1016.9 0.0
24/07:00pm SSW 9 17 - - - - 10 Cloudy - 10.9 1016.5 0.0
24/06:30pm SSW 10 22 - - - - 10 Partly cloudy - 11.5 1016.5 0.0
24/06:00pm SSW 8 16 - - - - 10 Cloudy - 12.3 1016.6 0.0
24/05:30pm SSW 11 21 - - - - 10 - - 11.8 1016.5 0.0
24/05:00pm S 11 16 - - - - 10 Partly cloudy - 11.5 1016.4 0.0
24/04:30pm S 11 20 - - - - 10 Cloudy - 12.1 1016.1 0.0
24/04:00pm S 15 25 - - - - 10 Partly cloudy - 12.0 1016.0 0.0
24/03:47pm S 15 27 - - - - 10 Partly cloudy - 12.1 1016.0 0.0
24/03:30pm S 8 12 - - - - 10 Partly cloudy - 12.6 1016.0 0.0
24/03:00pm S 9 16 - - - - 10 Cloudy - 13.6 1015.9 0.0
24/02:30pm SSW 12 21 - - - - 10 Partly cloudy - 14.6 1015.6 0.0
24/02:00pm SSW 10 17 - - - - 10 Partly cloudy - 13.0 1015.8 0.0
24/01:30pm S 8 16 - - - - 10 Partly cloudy - 14.3 1015.7 0.0
24/01:00pm S 9 22 - - - - 10 Partly cloudy - 12.7 1015.7 0.0
24/12:30pm S 12 23 - - - - 10 Partly cloudy - 11.7 1015.7 0.0
24/12:00pm S 12 24 - - - - 10 Cloudy - 11.5 1015.6 0.0
24/11:30am S 10 18 - - - - 10 Partly cloudy - 11.5 1015.6 0.0
24/11:00am SSW 11 23 - - - - 10 Partly cloudy - 11.5 1015.5 0.0
24/10:30am SSW 10 19 - - - - 10 Partly cloudy - 11.8 1015.3 0.0
24/10:00am S 13 20 - - - - 10 Cloudy - 11.7 1015.0 0.0
24/09:30am SSW 7 16 - - - - 10 Cloudy - 11.3 1014.8 0.0
24/09:00am SSW 6 11 - - - - 10 Cloudy - 10.4 1014.7 20.6
24/08:30am SSW 5 11 - - - - 10 Partly cloudy - 10.2 1014.4 20.6
24/08:00am SSW 6 14 - - - - 10 Partly cloudy - 9.6 1014.0 20.6
24/07:30am SSW 6 11 - - - - 10 Partly cloudy - 9.4 1013.6 20.2
24/07:00am SSW 4 6 - - - - 10 Partly cloudy - 9.2 1013.2 19.6
24/06:30am SW 5 10 - - - - 10 Partly cloudy - 9.1 1012.7 18.8
24/06:00am SW 6 10 - - - - 10 Cloudy - 9.1 1012.4 17.8
24/05:30am WSW 4 8 - - - - 10 Partly cloudy - 8.9 1012.3 16.8
24/05:00am SSW 5 8 - - - - 10 Partly cloudy - 8.8 1012.1 16.0
24/04:30am SW 5 10 - - - - 10 Partly cloudy - 9.0 1012.0 15.2
24/04:00am SW 5 7 - - - - 10 Partly cloudy - 8.9 1011.9 14.6
24/03:30am SW 3 5 - - - - 10 Partly cloudy - 8.9 1011.9 14.6
24/03:00am W 3 5 - - - - 10 Mostly cloudy - 8.9 1011.9 14.6
24/02:30am SW 1 5 - - - - 10 Partly cloudy - 9.1 1011.9 14.6
24/02:00am SW 2 4 - - - - 10 Cloudy - 8.7 1012.0 14.6
24/01:30am NW 1 4 - - - - 10 Partly cloudy - 8.9 1012.4 14.6
24/01:00am W 3 5 - - - - 10 Partly cloudy - 8.7 1012.6 14.4
24/12:30am SSW 7 11 - - - - 10 Partly cloudy - 8.7 1012.5 14.2
24/12:00am SSW 8 14 - - - - 7 Cloudy - 9.0 1012.5 13.4
 
Date/Time
EDT
Wind Sea
Height
m
Swell Vis
km
Cloud Weather Temp
°C
Press
MSL
hPa
Rain since
9am
mm
Dir  Spd
kts
Gust
kts
Height
m
Period
s
Dir
23/11:30pm SSW 6 12 - - - - 10 Partly cloudy - 9.3 1012.8 12.0
23/11:00pm SW 6 10 - - - - 10 Partly cloudy - 9.5 1012.9 11.6
23/10:56pm SW 6 9 - - - - 10 Partly cloudy - 9.6 1012.9 11.6
23/10:39pm SW 3 8 - - - - 4 Partly cloudy - 9.9 1012.9 11.4
23/10:30pm SW 2 3 - - - - 10 Partly cloudy - 9.8 1012.8 11.4
23/10:29pm SW 2 3 - - - - 10 Partly cloudy - 9.8 1012.8 11.4
23/10:01pm SW 1 4 - - - - 4 Cloudy - 9.9 1012.6 10.6
23/10:00pm SW 1 4 - - - - 5 Cloudy - 9.9 1012.6 10.6
23/09:30pm SSW 5 7 - - - - 10 Cloudy - 9.8 1012.5 9.6
23/09:00pm S 7 12 - - - - 10 Cloudy - 9.9 1012.1 9.4
23/08:30pm S 9 16 - - - - 9 Partly cloudy - 10.0 1011.7 9.2
23/08:00pm S 7 11 - - - - 6 Partly cloudy - 9.9 1011.8 9.2
23/07:30pm S 7 15 - - - - 10 Partly cloudy - 10.1 1011.4 9.0
23/07:00pm S 9 16 - - - - 10 Partly cloudy - 10.3 1010.9 9.0
23/06:30pm S 11 16 - - - - 10 Cloudy - 10.4 1010.8 9.0
23/06:00pm SSE 12 20 - - - - 10 Cloudy Rain 10.3 1010.7 9.0
23/05:30pm SSE 12 23 - - - - 9 Partly cloudy - 10.5 1010.6 9.0
23/05:16pm S 12 19 - - - - 7 Partly cloudy - 10.5 1010.6 9.0
23/05:06pm S 13 21 - - - - 5 Partly cloudy - 10.6 1010.5 8.8
23/05:00pm SSE 12 25 - - - - 6 Partly cloudy - 10.7 1010.5 8.8
23/04:51pm S 14 27 - - - - 10 Partly cloudy - 10.8 1010.7 8.6
23/04:36pm SSE 15 26 - - - - 6 Partly cloudy - 11.0 1010.3 8.6
23/04:31pm SSE 15 26 - - - - 5 Partly cloudy - 11.2 1010.2 8.6
23/04:30pm SSE 15 23 - - - - 5 Partly cloudy - 11.3 1010.2 8.6
23/04:16pm SSE 15 26 - - - - 5 Partly cloudy - 11.2 1010.4 8.4
23/04:00pm SSE 15 28 - - - - 8 Cloudy - 11.1 1010.3 8.0
23/03:51pm SSE 14 26 - - - - 8 Cloudy - 11.3 1010.3 8.0
23/03:30pm SSE 16 29 - - - - 4 Cloudy - 11.6 1010.4 8.0
23/03:22pm SSE 15 26 - - - - 4 Cloudy - 11.7 1010.5 7.8
23/03:16pm SSE 14 26 - - - - 5 Cloudy - 11.5 1010.6 7.8
23/03:00pm S 16 29 - - - - 5 Cloudy - 11.5 1010.8 7.8
23/02:52pm S 16 26 - - - - 5 Cloudy - 11.4 1010.8 7.6
23/02:41pm S 15 25 - - - - 5 Cloudy - 11.4 1010.9 7.6
23/02:38pm S 14 22 - - - - 5 Cloudy - 11.6 1010.9 7.6
23/02:30pm SSE 14 25 - - - - 5 Cloudy - 11.8 1011.0 7.6
23/02:29pm SSE 14 25 - - - - 5 Cloudy - 11.9 1011.0 7.6
23/02:05pm S 15 25 - - - - 3 Partly cloudy - 11.5 1011.3 7.4
23/02:00pm S 13 25 - - - - 3 Cloudy - 11.5 1011.3 7.4
23/01:30pm SSE 11 19 - - - - 2 Cloudy - 11.9 1011.5 6.6
23/01:00pm SE 4 7 - - - - 3 Partly cloudy - 14.3 1011.4 5.0
23/12:30pm E 4 6 - - - - 2 Partly cloudy - 14.0 1011.5 3.6
23/12:00pm ENE 5 7 - - - - 2 Cloudy - 14.3 1011.6 1.8
23/11:30am NE 5 8 - - - - 3 Partly cloudy - 14.4 1011.9 0.8
23/11:26am NE 5 9 - - - - 5 Partly cloudy - 14.2 1011.9 0.6
23/11:13am NE 5 7 - - - - 10 Partly cloudy - 14.3 1012.1 0.6
23/11:00am NE 4 6 - - - - 4 Partly cloudy - 14.2 1012.2 0.6
23/10:55am NNE 5 7 - - - - 5 Partly cloudy - 14.2 1012.3 0.6
23/10:30am NE 5 7 - - - - 10 Partly cloudy - 14.1 1012.4 0.4
23/10:06am NE 4 5 - - - - 6 Partly cloudy - 14.2 1012.4 0.4
23/10:00am NE 5 6 - - - - 5 Cloudy - 14.1 1012.5 0.2
23/09:55am NE 5 6 - - - - 5 Partly cloudy - 14.0 1012.5 0.2
23/09:30am NE 5 7 - - - - 10 Cloudy - 13.9 1012.6 0.0
23/09:00am NE 5 9 - - - - 10 Mostly cloudy - 13.8 1012.2 8.2
23/08:30am NNE 6 8 - - - - 9 Cloudy - 13.8 1012.7 8.2
23/08:00am NE 4 7 - - - - 10 Cloudy - 13.6 1012.5 7.8
23/07:30am N 3 5 - - - - 10 Cloudy - 13.5 1012.8 7.2
23/07:00am NE 6 9 - - - - 5 Partly cloudy - 13.3 1012.2 6.6
23/06:30am NE 5 7 - - - - 5 Partly cloudy - 13.3 1012.4 5.4
23/06:28am NE 5 7 - - - - 6 Partly cloudy - 13.4 1012.4 5.2
23/06:24am NE 5 7 - - - - 6 Partly cloudy - 13.3 1012.5 5.0
23/06:00am NE 3 5 - - - - 9 Cloudy - 13.3 1012.6 3.6
23/05:30am NNE 3 5 - - - - 8 Partly cloudy - 13.4 1012.8 2.2
23/05:23am NNE 2 4 - - - - 9 Partly cloudy - 13.4 1012.7 2.0
23/05:00am NNE 1 4 - - - - 10 Partly cloudy - 13.5 1012.9 1.6
23/04:49am CALM 0 0 - - - - 10 Partly cloudy - 13.5 1012.7 1.4
23/04:30am CALM 0 0 - - - - 10 Partly cloudy - 13.7 1012.8 0.6
23/04:00am NNW 1 3 - - - - 10 Cloudy - 13.9 1013.2 0.2
23/03:30am NNW 4 6 - - - - 10 Cloudy - 14.2 1013.5 0.0
23/03:00am NNW 4 7 - - - - 10 Cloudy - 14.2 1013.8 0.0
23/02:30am NNW 5 8 - - - - 10 Cloudy - 14.0 1014.2 0.0
23/02:00am NW 6 9 - - - - 10 Cloudy - 14.3 1014.6 0.0
23/01:54am NNW 5 8 - - - - 10 Partly cloudy - 14.3 1014.6 0.0
23/01:30am NNW 4 6 - - - - 10 Partly cloudy - 14.2 1014.3 0.0
23/01:15am N 5 7 - - - - 10 Partly cloudy - 14.2 1014.3 0.0
23/01:00am N 4 6 - - - - 10 Partly cloudy - 14.2 1014.3 0.0
23/12:43am N 6 10 - - - - 10 Partly cloudy - 14.3 1014.4 0.0
23/12:30am NNE 6 9 - - - - 10 Partly cloudy - 14.3 1014.5 0.0
23/12:18am NNE 5 8 - - - - 10 Partly cloudy - 14.3 1014.7 0.0
23/12:00am NNE 5 8 - - - - 10 Cloudy - 14.3 1015.0 0.0
 
Date/Time
EDT
Wind Sea
Height
m
Swell Vis
km
Cloud Weather Temp
°C
Press
MSL
hPa
Rain since
9am
mm
Dir  Spd
kts
Gust
kts
Height
m
Period
s
Dir
22/11:30pm NNE 5 8 - - - - 10 Partly cloudy - 14.3 1015.2 0.0
22/11:17pm N 5 7 - - - - 9 Partly cloudy - 14.2 1015.3 0.0
22/11:00pm NNE 5 7 - - - - 10 Partly cloudy - 14.3 1015.2 0.0
22/10:30pm NE 4 6 - - - - 10 Partly cloudy - 14.2 1015.4 0.0
22/10:21pm NE 4 5 - - - - 10 Partly cloudy - 14.2 1015.6 0.0
22/10:00pm N 3 4 - - - - 10 Partly cloudy - 14.3 1016.0 0.0
22/09:30pm NNE 3 6 - - - - 10 Partly cloudy - 14.3 1016.0 0.0
22/09:23pm N 3 5 - - - - 10 Partly cloudy - 14.3 1016.1 0.0
22/09:00pm N 4 6 - - - - 10 Cloudy - 14.4 1016.2 0.0
22/08:30pm NNE 4 6 - - - - 10 Cloudy - 14.5 1016.2 0.0
22/08:00pm NNE 6 8 - - - - 10 Partly cloudy - 14.6 1016.0 0.0
22/07:30pm N 5 7 - - - - 10 Cloudy - 14.7 1016.2 0.0
22/07:00pm NNE 6 10 - - - - 10 Cloudy - 14.9 1015.9 0.0

Other formats

Comma delimited format used in spreadsheet applications
http://www.bom.gov.au/fwo/IDT60701/IDT60701.95981.axf

JavaScript Object Notation format (JSON) in row-major order
http://www.bom.gov.au/fwo/IDT60701/IDT60701.95981.json

Data quality

Most of these data are generated automatically and are frequently updated. Quality checks on data are not normally performed. It is possible for incorrect values to appear. Refer to information at About Latest Weather Observations and please check the disclaimer before using these data.